createdAt,value
2019-04-30T00:04:00.331Z,100525.78
2019-04-30T00:09:05.380Z,100535.69
2019-04-30T00:14:09.332Z,100525.78
2019-04-30T00:19:15.872Z,100525.78
2019-04-30T00:24:18.759Z,100520.77
2019-04-30T00:29:26.979Z,100522.23
2019-04-30T00:34:30.907Z,100517.10
2019-04-30T00:39:35.162Z,100513.07
2019-04-30T00:44:39.307Z,100510.24
2019-04-30T00:49:44.856Z,100513.55
2019-04-30T00:54:48.922Z,100501.94
2019-04-30T00:59:52.825Z,100510.23
2019-04-30T01:05:05.083Z,100510.23
2019-04-30T01:10:05.095Z,100506.81
2019-04-30T01:15:11.159Z,100511.58
2019-04-30T01:20:15.570Z,100511.58
2019-04-30T01:25:20.746Z,100503.78
2019-04-30T01:30:28.390Z,100509.52
2019-04-30T01:35:32.816Z,100504.77
2019-04-30T01:40:38.418Z,100502.90
2019-04-30T01:45:42.313Z,100496.19
2019-04-30T01:50:46.218Z,100491.55
2019-04-30T01:56:00.635Z,100500.22
2019-04-30T02:01:09.702Z,100500.22
2019-04-30T02:06:13.513Z,100501.05
2019-04-30T02:11:19.011Z,100510.19
2019-04-30T02:16:23.009Z,100513.00
2019-04-30T02:21:26.912Z,100510.31
2019-04-30T02:26:30.714Z,100523.09
2019-04-30T02:31:34.502Z,100521.27
2019-04-30T02:36:45.264Z,100512.96
2019-04-30T02:41:50.666Z,100523.05
2019-04-30T02:46:54.694Z,100525.73
2019-04-30T02:51:59.501Z,100520.24
2019-04-30T02:57:11.958Z,100524.48
2019-04-30T03:02:16.025Z,100521.55
2019-04-30T03:07:19.879Z,100532.89
2019-04-30T03:12:23.716Z,100528.98
2019-04-30T03:17:39.346Z,100524.67
2019-04-30T03:22:42.733Z,100536.02
2019-04-30T03:27:46.564Z,100535.28
2019-04-30T03:32:56.633Z,100542.48
2019-04-30T03:37:55.997Z,100542.48
2019-04-30T03:43:03.060Z,100539.17
2019-04-30T03:48:05.356Z,100533.64
2019-04-30T03:53:10.409Z,100534.25
2019-04-30T03:58:14.462Z,100544.26
2019-04-30T04:03:20.083Z,100544.26
2019-04-30T04:08:31.296Z,100560.83
2019-04-30T04:13:35.081Z,100571.27
2019-04-30T04:18:40.261Z,100571.77
2019-04-30T04:23:44.257Z,100571.77
2019-04-30T04:28:49.606Z,100578.52
2019-04-30T04:33:53.687Z,100578.52
2019-04-30T04:38:59.917Z,100574.88
2019-04-30T04:44:03.360Z,100583.41
2019-04-30T04:49:09.014Z,100587.44
2019-04-30T04:54:12.866Z,100587.06
2019-04-30T04:59:16.646Z,100587.06
2019-04-30T05:04:20.453Z,100583.53
2019-04-30T05:09:24.224Z,100586.30
2019-04-30T05:14:28.810Z,100587.63
2019-04-30T05:19:32.718Z,100593.85
2019-04-30T05:24:36.504Z,100593.42
2019-04-30T05:29:40.275Z,100593.42
2019-04-30T05:34:44.069Z,100602.61
2019-04-30T05:39:48.948Z,100602.61
2019-04-30T05:44:52.828Z,100609.38
2019-04-30T05:49:58.432Z,100618.69
2019-04-30T05:55:02.389Z,100617.11
2019-04-30T06:00:06.932Z,100621.66
2019-04-30T06:05:10.730Z,100621.66
2019-04-30T06:10:21.241Z,100632.20
2019-04-30T06:15:44.352Z,100620.48
2019-04-30T06:20:48.594Z,100620.73
2019-04-30T06:25:59.348Z,100620.73
2019-04-30T06:30:59.143Z,100622.14
2019-04-30T06:36:03.021Z,100638.42
2019-04-30T06:41:08.602Z,100644.30
2019-04-30T06:46:12.789Z,100644.30
2019-04-30T06:51:16.583Z,100633.58
2019-04-30T06:56:20.388Z,100633.05
2019-04-30T07:01:26.115Z,100633.05
2019-04-30T07:06:32.785Z,100638.37
2019-04-30T07:11:39.177Z,100631.46
2019-04-30T07:16:43.139Z,100631.46
2019-04-30T07:21:49.448Z,100632.49
2019-04-30T07:26:54.838Z,100631.52
2019-04-30T07:31:59.219Z,100631.41
2019-04-30T07:37:14.571Z,100634.27
2019-04-30T07:42:09.253Z,100635.12
2019-04-30T07:47:13.178Z,100642.68
2019-04-30T07:52:18.687Z,100636.45
2019-04-30T07:57:22.930Z,100636.45
2019-04-30T08:02:29.741Z,100637.23
2019-04-30T08:07:33.917Z,100643.71
2019-04-30T08:12:41.884Z,100643.71
2019-04-30T08:17:43.432Z,100642.00
2019-04-30T08:22:49.238Z,100642.37
2019-04-30T08:27:52.725Z,100643.53
2019-04-30T08:32:56.489Z,100636.92
2019-04-30T08:38:00.273Z,100645.53
2019-04-30T08:43:04.397Z,100640.66
2019-04-30T08:48:09.095Z,100640.66
2019-04-30T08:53:25.991Z,100641.20
2019-04-30T08:58:20.571Z,100651.09
2019-04-30T09:03:24.201Z,100651.09
2019-04-30T09:08:29.437Z,100636.14
2019-04-30T09:13:33.420Z,100633.60
2019-04-30T09:18:39.227Z,100637.86
2019-04-30T09:23:49.632Z,100637.86
2019-04-30T09:28:49.478Z,100618.02
2019-04-30T09:33:53.398Z,100618.02
2019-04-30T09:39:00.992Z,100629.63
2019-04-30T09:44:02.718Z,100629.86
2019-04-30T09:49:06.505Z,100629.86
2019-04-30T09:54:12.520Z,100629.55
2019-04-30T09:59:15.925Z,100620.89
2019-04-30T10:04:20.660Z,100610.78
2019-04-30T10:09:24.863Z,100594.69
2019-04-30T10:14:28.646Z,100594.69
2019-04-30T10:19:32.584Z,100597.84
2019-04-30T10:24:36.401Z,100590.52
2019-04-30T10:29:41.229Z,100585.19
2019-04-30T10:34:45.174Z,100585.19
2019-04-30T10:39:49.178Z,100591.45
2019-04-30T10:44:53.039Z,100588.45
2019-04-30T10:49:58.478Z,100589.73
2019-04-30T10:55:04.525Z,100589.73
2019-04-30T11:00:10.131Z,100586.22
2019-04-30T11:05:14.054Z,100592.80
2019-04-30T11:10:18.919Z,100584.50
2019-04-30T11:15:22.889Z,100578.95
2019-04-30T11:20:26.867Z,100573.27
2019-04-30T11:25:31.938Z,100573.27
2019-04-30T11:30:37.364Z,100571.12
2019-04-30T11:35:42.327Z,100576.64
2019-04-30T11:40:46.099Z,100581.22
2019-04-30T11:46:38.397Z,100567.69
2019-04-30T11:51:41.901Z,100567.69
2019-04-30T11:56:45.671Z,100550.08
2019-04-30T12:01:51.702Z,100550.08
2019-04-30T12:06:57.156Z,100548.27
2019-04-30T12:12:00.950Z,100538.37
2019-04-30T12:17:04.744Z,100547.29
2019-04-30T12:22:08.571Z,100547.29
2019-04-30T12:27:12.377Z,100536.50
2019-04-30T12:32:16.165Z,100530.77
2019-04-30T12:37:20.034Z,100516.06
2019-04-30T12:42:23.844Z,100506.30
2019-04-30T12:47:29.606Z,100510.52
2019-04-30T12:52:49.490Z,100503.48
2019-04-30T12:57:58.850Z,100520.69
2019-04-30T13:03:00.353Z,100500.23
2019-04-30T13:08:04.907Z,100500.23
2019-04-30T13:13:09.739Z,100487.98
2019-04-30T13:18:13.854Z,100486.18
2019-04-30T13:23:18.626Z,100486.18
2019-04-30T13:28:24.355Z,100475.44
2019-04-30T13:33:38.915Z,100465.18
2019-04-30T13:38:52.317Z,100471.53
2019-04-30T13:44:01.812Z,100453.95
2019-04-30T13:49:05.596Z,100462.16
2019-04-30T13:54:09.464Z,100450.05
2019-04-30T13:59:13.275Z,100450.05
2019-04-30T14:04:27.332Z,100445.05
2019-04-30T14:09:32.503Z,100445.05
2019-04-30T14:14:36.361Z,100441.14
2019-04-30T14:19:40.374Z,100427.25
2019-04-30T14:24:44.169Z,100433.11
2019-04-30T14:29:49.477Z,100436.39
2019-04-30T14:34:53.396Z,100430.41
2019-04-30T14:39:57.528Z,100421.75
2019-04-30T14:45:18.150Z,100415.03
2019-04-30T14:50:22.532Z,100414.80
2019-04-30T14:55:43.968Z,100406.23
2019-04-30T15:00:59.367Z,100398.48
2019-04-30T15:06:03.352Z,100405.67
2019-04-30T15:11:08.939Z,100405.20
2019-04-30T15:16:12.955Z,100394.77
2019-04-30T15:21:16.737Z,100394.77
2019-04-30T15:26:22.866Z,100395.92
2019-04-30T15:31:26.198Z,100394.20
2019-04-30T15:36:29.980Z,100394.21
2019-04-30T15:41:33.801Z,100387.36
2019-04-30T15:46:38.363Z,100388.70
2019-04-30T15:51:42.144Z,100389.52
2019-04-30T15:56:46.398Z,100389.44
2019-04-30T16:01:52.979Z,100378.34
2019-04-30T16:06:58.401Z,100374.91
2019-04-30T16:12:10.974Z,100381.02
2019-04-30T16:17:24.883Z,100375.03
2019-04-30T16:22:29.159Z,100375.03
2019-04-30T16:27:33.183Z,100376.23
2019-04-30T16:32:36.957Z,100370.97
2019-04-30T16:37:40.721Z,100373.80
2019-04-30T16:42:44.659Z,100367.91
2019-04-30T16:47:48.462Z,100367.38
2019-04-30T16:52:52.254Z,100362.86
2019-04-30T16:57:56.062Z,100360.17
2019-04-30T17:03:04.407Z,100356.08
2019-04-30T17:08:14.058Z,100356.24
2019-04-30T17:13:25.940Z,100358.83
2019-04-30T17:18:29.813Z,100357.48
2019-04-30T17:23:33.591Z,100353.84
2019-04-30T17:28:38.605Z,100353.84
2019-04-30T17:33:42.478Z,100357.70
2019-04-30T17:38:46.363Z,100357.70
2019-04-30T17:43:50.207Z,100355.87
2019-04-30T17:48:53.990Z,100355.87
2019-04-30T17:54:16.464Z,100353.45
2019-04-30T17:59:20.312Z,100350.62
2019-04-30T18:04:24.164Z,100346.23
2019-04-30T18:09:30.519Z,100349.19
2019-04-30T18:14:34.448Z,100346.98
2019-04-30T18:19:51.127Z,100346.98
2019-04-30T18:25:07.589Z,100339.19
2019-04-30T18:30:14.087Z,100358.37
2019-04-30T18:35:18.646Z,100358.37
2019-04-30T18:40:23.535Z,100356.53
2019-04-30T18:45:28.829Z,100355.55
2019-04-30T18:50:32.746Z,100355.55
2019-04-30T18:55:36.644Z,100366.89
2019-04-30T19:00:42.038Z,100366.89
2019-04-30T19:05:49.812Z,100359.45
2019-04-30T19:11:01.221Z,100370.20
2019-04-30T19:16:33.312Z,100367.64
2019-04-30T19:21:40.241Z,100367.64
2019-04-30T19:26:42.900Z,100381.31
2019-04-30T19:31:46.757Z,100380.59
2019-04-30T19:36:50.573Z,100377.55
2019-04-30T19:41:54.446Z,100376.07
2019-04-30T19:46:58.641Z,100373.52
2019-04-30T19:52:08.569Z,100375.09
2019-04-30T19:57:10.135Z,100381.22
2019-04-30T20:02:13.583Z,100379.61
2019-04-30T20:07:19.431Z,100380.07
2019-04-30T20:12:23.183Z,100388.03
2019-04-30T20:17:26.971Z,100388.03
2019-04-30T20:22:30.965Z,100389.52
2019-04-30T20:27:34.796Z,100389.52
2019-04-30T20:32:38.592Z,100380.73
2019-04-30T20:38:00.130Z,100382.17
2019-04-30T20:43:03.943Z,100375.22
2019-04-30T20:48:08.951Z,100375.22
2019-04-30T20:53:12.962Z,100371.41
2019-04-30T20:58:16.768Z,100371.41
2019-04-30T21:03:20.568Z,100366.30
2019-04-30T21:08:24.375Z,100375.81
2019-04-30T21:13:29.593Z,100372.66
2019-04-30T21:18:33.614Z,100372.66
2019-04-30T21:23:39.221Z,100366.80
2019-04-30T21:28:43.125Z,100370.43
2019-04-30T21:33:49.274Z,100366.04
2019-04-30T21:38:53.461Z,100370.43
2019-04-30T21:43:57.305Z,100361.02
2019-04-30T21:49:01.142Z,100356.98
2019-04-30T21:54:04.981Z,100357.74
2019-04-30T21:59:08.777Z,100352.01
2019-04-30T22:04:12.591Z,100352.01
2019-04-30T22:09:16.875Z,100357.88
2019-04-30T22:14:20.694Z,100357.38
2019-04-30T22:19:24.511Z,100355.55
2019-04-30T22:24:30.381Z,100355.55
2019-04-30T22:29:39.317Z,100345.38
2019-04-30T22:34:40.525Z,100347.97
2019-04-30T22:39:53.749Z,100328.08
2019-04-30T22:44:57.605Z,100343.45
2019-04-30T22:50:01.414Z,100336.73
2019-04-30T22:55:06.275Z,100336.73
2019-04-30T23:00:13.733Z,100335.38
2019-04-30T23:05:18.147Z,100335.38
2019-04-30T23:10:22.061Z,100336.73
2019-04-30T23:15:25.847Z,100336.73
2019-04-30T23:20:29.809Z,100324.63
2019-04-30T23:25:33.598Z,100321.94
2019-04-30T23:30:37.406Z,100318.89
2019-04-30T23:35:41.216Z,100310.83
2019-04-30T23:40:49.903Z,100310.83
2019-04-30T23:45:53.729Z,100299.94
2019-04-30T23:50:57.562Z,100296.41
2019-04-30T23:56:01.369Z,100296.41
